sensor_id;sensor_type;location;lat;lon;timestamp;pressure;altitude;pressure_sealevel;temperature;humidity
49104;BME280;34915;52.926;11.116;2023-05-01T00:00:51;102046.34;;;5.54;96.94
49104;BME280;34915;52.926;11.116;2023-05-01T00:03:17;102042.16;;;5.47;97.91
49104;BME280;34915;52.926;11.116;2023-05-01T00:05:44;102039.53;;;5.47;97.50
49104;BME280;34915;52.926;11.116;2023-05-01T00:08:11;102043.44;;;5.34;96.67
49104;BME280;34915;52.926;11.116;2023-05-01T00:10:37;102039.09;;;5.33;95.72
49104;BME280;34915;52.926;11.116;2023-05-01T00:13:03;102032.91;;;5.34;97.18
49104;BME280;34915;52.926;11.116;2023-05-01T00:15:29;102036.78;;;5.21;95.98
49104;BME280;34915;52.926;11.116;2023-05-01T00:17:57;102039.56;;;5.17;96.53
49104;BME280;34915;52.926;11.116;2023-05-01T00:20:28;102045.97;;;5.08;96.69
49104;BME280;34915;52.926;11.116;2023-05-01T00:22:54;102033.97;;;4.98;97.20
49104;BME280;34915;52.926;11.116;2023-05-01T00:25:20;102039.06;;;5.04;98.39
49104;BME280;34915;52.926;11.116;2023-05-01T00:27:46;102040.75;;;5.07;98.95
49104;BME280;34915;52.926;11.116;2023-05-01T00:30:12;102037.25;;;5.06;98.22
49104;BME280;34915;52.926;11.116;2023-05-01T00:32:38;102031.81;;;5.12;98.33
49104;BME280;34915;52.926;11.116;2023-05-01T00:35:05;102019.59;;;5.11;97.90
49104;BME280;34915;52.926;11.116;2023-05-01T00:37:30;102028.38;;;5.10;97.54
49104;BME280;34915;52.926;11.116;2023-05-01T00:39:56;102026.66;;;5.09;98.25
49104;BME280;34915;52.926;11.116;2023-05-01T00:42:22;102004.09;;;5.02;97.53
49104;BME280;34915;52.926;11.116;2023-05-01T00:44:47;102005.91;;;5.00;96.98
49104;BME280;34915;52.926;11.116;2023-05-01T00:47:13;102020.00;;;4.96;97.64
49104;BME280;34915;52.926;11.116;2023-05-01T00:49:41;102004.53;;;4.88;96.74
49104;BME280;34915;52.926;11.116;2023-05-01T00:52:07;102018.50;;;4.89;97.31
49104;BME280;34915;52.926;11.116;2023-05-01T00:54:35;102006.34;;;4.86;97.88
49104;BME280;34915;52.926;11.116;2023-05-01T00:57:01;102013.31;;;4.87;97.89
49104;BME280;34915;52.926;11.116;2023-05-01T00:59:27;102007.06;;;4.90;98.43
49104;BME280;34915;52.926;11.116;2023-05-01T01:01:53;102002.72;;;4.89;98.04
49104;BME280;34915;52.926;11.116;2023-05-01T01:04:22;102004.34;;;4.93;97.11
49104;BME280;34915;52.926;11.116;2023-05-01T01:06:55;102001.00;;;4.88;97.71
49104;BME280;34915;52.926;11.116;2023-05-01T01:12:26;102001.19;;;4.83;97.14
49104;BME280;34915;52.926;11.116;2023-05-01T01:17:58;101992.63;;;4.75;97.89
49104;BME280;34915;52.926;11.116;2023-05-01T01:20:34;101989.38;;;4.67;98.59
49104;BME280;34915;52.926;11.116;2023-05-01T01:23:23;101994.63;;;4.67;99.22
49104;BME280;34915;52.926;11.116;2023-05-01T01:26:03;101986.91;;;4.61;99.68
49104;BME280;34915;52.926;11.116;2023-05-01T01:31:19;101993.38;;;4.48;100.00
49104;BME280;34915;52.926;11.116;2023-05-01T01:36:18;101993.63;;;4.39;100.00
49104;BME280;34915;52.926;11.116;2023-05-01T01:38:46;101993.72;;;4.36;100.00
49104;BME280;34915;52.926;11.116;2023-05-01T01:41:19;101994.56;;;4.37;100.00
49104;BME280;34915;52.926;11.116;2023-05-01T01:44:00;101982.38;;;4.34;100.00
49104;BME280;34915;52.926;11.116;2023-05-01T01:46:27;101980.84;;;4.27;100.00
49104;BME280;34915;52.926;11.116;2023-05-01T01:48:54;101980.00;;;4.25;100.00
49104;BME280;34915;52.926;11.116;2023-05-01T01:51:27;101980.00;;;4.25;100.00
49104;BME280;34915;52.926;11.116;2023-05-01T01:53:55;101978.38;;;4.21;100.00
49104;BME280;34915;52.926;11.116;2023-05-01T01:56:25;101969.81;;;4.13;100.00
49104;BME280;34915;52.926;11.116;2023-05-01T01:58:52;101980.22;;;4.16;100.00
49104;BME280;34915;52.926;11.116;2023-05-01T02:01:18;101962.94;;;4.09;100.00
49104;BME280;34915;52.926;11.116;2023-05-01T02:03:46;101950.91;;;4.02;100.00
49104;BME280;34915;52.926;11.116;2023-05-01T02:06:14;101964.66;;;4.10;100.00
49104;BME280;34915;52.926;11.116;2023-05-01T02:08:41;101957.75;;;4.06;100.00
49104;BME280;34915;52.926;11.116;2023-05-01T02:11:10;101959.66;;;4.01;100.00
49104;BME280;34915;52.926;11.116;2023-05-01T02:13:39;101956.13;;;4.02;100.00
49104;BME280;34915;52.926;11.116;2023-05-01T02:16:06;101953.53;;;4.02;100.00
49104;BME280;34915;52.926;11.116;2023-05-01T02:18:33;101953.56;;;4.01;100.00
49104;BME280;34915;52.926;11.116;2023-05-01T02:21:01;101940.50;;;3.99;100.00
49104;BME280;34915;52.926;11.116;2023-05-01T02:23:28;101942.19;;;4.00;100.00
49104;BME280;34915;52.926;11.116;2023-05-01T02:25:56;101941.38;;;3.98;100.00
49104;BME280;34915;52.926;11.116;2023-05-01T02:28:25;101937.06;;;3.96;100.00
49104;BME280;34915;52.926;11.116;2023-05-01T02:30:51;101927.47;;;3.95;100.00
49104;BME280;34915;52.926;11.116;2023-05-01T02:33:17;101938.69;;;4.01;100.00
49104;BME280;34915;52.926;11.116;2023-05-01T02:35:44;101934.38;;;3.99;100.00
49104;BME280;34915;52.926;11.116;2023-05-01T02:38:12;101936.22;;;3.95;100.00
49104;BME280;34915;52.926;11.116;2023-05-01T02:40:39;101926.63;;;3.94;100.00
49104;BME280;34915;52.926;11.116;2023-05-01T02:43:09;101923.19;;;3.92;100.00
49104;BME280;34915;52.926;11.116;2023-05-01T02:45:37;101918.03;;;3.90;100.00
49104;BME280;34915;52.926;11.116;2023-05-01T02:48:09;101909.31;;;3.88;100.00
49104;BME280;34915;52.926;11.116;2023-05-01T02:50:35;101909.47;;;3.82;100.00
49104;BME280;34915;52.926;11.116;2023-05-01T02:53:01;101918.19;;;3.84;100.00
49104;BME280;34915;52.926;11.116;2023-05-01T02:55:27;101907.78;;;3.81;100.00
49104;BME280;34915;52.926;11.116;2023-05-01T02:57:57;101900.88;;;3.77;100.00
49104;BME280;34915;52.926;11.116;2023-05-01T03:00:22;101900.91;;;3.75;100.00
49104;BME280;34915;52.926;11.116;2023-05-01T03:02:48;101894.78;;;3.76;100.00
49104;BME280;34915;52.926;11.116;2023-05-01T03:05:13;101897.50;;;3.72;100.00
49104;BME280;34915;52.926;11.116;2023-05-01T03:07:43;101892.25;;;3.72;100.00
49104;BME280;34915;52.926;11.116;2023-05-01T03:10:09;101886.28;;;3.67;100.00
49104;BME280;34915;52.926;11.116;2023-05-01T03:12:35;101891.53;;;3.67;100.00
49104;BME280;34915;52.926;11.116;2023-05-01T03:15:00;101883.91;;;3.58;100.00
49104;BME280;34915;52.926;11.116;2023-05-01T03:17:26;101881.44;;;3.52;100.00
49104;BME280;34915;52.926;11.116;2023-05-01T03:19:52;101882.50;;;3.43;100.00
49104;BME280;34915;52.926;11.116;2023-05-01T03:22:17;101874.03;;;3.34;100.00
49104;BME280;34915;52.926;11.116;2023-05-01T03:24:43;101879.03;;;3.43;100.00
49104;BME280;34915;52.926;11.116;2023-05-01T03:27:08;101879.03;;;3.43;100.00
49104;BME280;34915;52.926;11.116;2023-05-01T03:29:34;101872.06;;;3.42;100.00
49104;BME280;34915;52.926;11.116;2023-05-01T03:32:02;101861.00;;;3.30;100.00
49104;BME280;34915;52.926;11.116;2023-05-01T03:34:28;101860.38;;;3.20;100.00
49104;BME280;34915;52.926;11.116;2023-05-01T03:36:54;101875.38;;;3.14;100.00
49104;BME280;34915;52.926;11.116;2023-05-01T03:39:19;101872.88;;;3.09;100.00
49104;BME280;34915;52.926;11.116;2023-05-01T03:41:45;101869.25;;;3.13;100.00
49104;BME280;34915;52.926;11.116;2023-05-01T03:44:11;101874.50;;;3.13;100.00
49104;BME280;34915;52.926;11.116;2023-05-01T03:46:36;101867.50;;;3.15;100.00
49104;BME280;34915;52.926;11.116;2023-05-01T03:49:02;101865.69;;;3.17;100.00
49104;BME280;34915;52.926;11.116;2023-05-01T03:51:27;101865.75;;;3.14;100.00
49104;BME280;34915;52.926;11.116;2023-05-01T03:53:53;101869.41;;;3.07;100.00
49104;BME280;34915;52.926;11.116;2023-05-01T03:56:23;101859.28;;;2.92;100.00
49104;BME280;34915;52.926;11.116;2023-05-01T03:58:53;101866.19;;;2.96;100.00
49104;BME280;34915;52.926;11.116;2023-05-01T04:01:18;101848.53;;;3.04;100.00
49104;BME280;34915;52.926;11.116;2023-05-01T04:03:44;101838.06;;;3.04;100.00
49104;BME280;34915;52.926;11.116;2023-05-01T04:06:11;101846.69;;;3.08;100.00
49104;BME280;34915;52.926;11.116;2023-05-01T04:08:37;101844.88;;;3.11;100.00
49104;BME280;34915;52.926;11.116;2023-05-01T04:11:02;101839.59;;;3.14;100.00
49104;BME280;34915;52.926;11.116;2023-05-01T04:13:28;101839.50;;;3.17;100.00
49104;BME280;34915;52.926;11.116;2023-05-01T04:15:53;101838.50;;;3.23;100.00
49104;BME280;34915;52.926;11.116;2023-05-01T04:18:22;101839.38;;;3.23;100.00
49104;BME280;34915;52.926;11.116;2023-05-01T04:20:47;101842.72;;;3.28;100.00
49104;BME280;34915;52.926;11.116;2023-05-01T04:23:13;101846.09;;;3.33;100.00
49104;BME280;34915;52.926;11.116;2023-05-01T04:25:38;101832.25;;;3.28;100.00
49104;BME280;34915;52.926;11.116;2023-05-01T04:28:04;101841.41;;;3.45;100.00
49104;BME280;34915;52.926;11.116;2023-05-01T04:30:30;101838.75;;;3.47;100.00
49104;BME280;34915;52.926;11.116;2023-05-01T04:32:56;101832.53;;;3.52;100.00
49104;BME280;34915;52.926;11.116;2023-05-01T04:35:23;101825.50;;;3.54;100.00
49104;BME280;34915;52.926;11.116;2023-05-01T04:37:50;101835.59;;;3.69;100.00
49104;BME280;34915;52.926;11.116;2023-05-01T04:40:16;101825.78;;;3.76;100.00
49104;BME280;34915;52.926;11.116;2023-05-01T04:42:42;101829.16;;;3.81;100.00
49104;BME280;34915;52.926;11.116;2023-05-01T04:45:08;101820.31;;;3.85;100.00
49104;BME280;34915;52.926;11.116;2023-05-01T04:47:33;101817.47;;;3.92;100.00
49104;BME280;34915;52.926;11.116;2023-05-01T04:49:59;101816.50;;;3.96;100.00
49104;BME280;34915;52.926;11.116;2023-05-01T04:52:24;101814.59;;;4.02;100.00
49104;BME280;34915;52.926;11.116;2023-05-01T04:54:50;101814.44;;;4.08;100.00
49104;BME280;34915;52.926;11.116;2023-05-01T04:57:16;101821.31;;;4.11;100.00
49104;BME280;34915;52.926;11.116;2023-05-01T04:59:41;101805.63;;;4.09;100.00
49104;BME280;34915;52.926;11.116;2023-05-01T05:02:07;101815.94;;;4.15;100.00
49104;BME280;34915;52.926;11.116;2023-05-01T05:04:33;101809.09;;;4.11;100.00
49104;BME280;34915;52.926;11.116;2023-05-01T05:07:01;101815.88;;;4.18;100.00
49104;BME280;34915;52.926;11.116;2023-05-01T05:09:26;101815.72;;;4.24;100.00
49104;BME280;34915;52.926;11.116;2023-05-01T05:11:52;101811.72;;;4.40;100.00
49104;BME280;34915;52.926;11.116;2023-05-01T05:14:17;101801.97;;;4.45;100.00
49104;BME280;34915;52.926;11.116;2023-05-01T05:16:43;101805.69;;;4.67;100.00
49104;BME280;34915;52.926;11.116;2023-05-01T05:19:08;101807.03;;;4.80;100.00
49104;BME280;34915;52.926;11.116;2023-05-01T05:21:34;101791.09;;;4.86;100.00
49104;BME280;34915;52.926;11.116;2023-05-01T05:24:00;101789.78;;;5.00;100.00
49104;BME280;34915;52.926;11.116;2023-05-01T05:26:28;101788.31;;;5.17;100.00
49104;BME280;34915;52.926;11.116;2023-05-01T05:28:53;101780.94;;;5.28;100.00
49104;BME280;34915;52.926;11.116;2023-05-01T05:31:19;101784.69;;;5.47;100.00
49104;BME280;34915;52.926;11.116;2023-05-01T05:33:44;101791.94;;;5.65;100.00
49104;BME280;34915;52.926;11.116;2023-05-01T05:36:10;101784.38;;;5.82;100.00
49104;BME280;34915;52.926;11.116;2023-05-01T05:38:36;101778.66;;;5.93;99.42
49104;BME280;34915;52.926;11.116;2023-05-01T05:41:02;101788.53;;;6.11;97.04
49104;BME280;34915;52.926;11.116;2023-05-01T05:43:27;101781.00;;;6.25;95.28
49104;BME280;34915;52.926;11.116;2023-05-01T05:45:57;101784.06;;;6.36;91.38
49104;BME280;34915;52.926;11.116;2023-05-01T05:48:23;101772.41;;;6.43;91.96
49104;BME280;34915;52.926;11.116;2023-05-01T05:50:49;101777.09;;;6.58;94.41
49104;BME280;34915;52.926;11.116;2023-05-01T05:53:19;101780.13;;;6.70;92.61
49104;BME280;34915;52.926;11.116;2023-05-01T05:55:46;101766.66;;;6.78;90.50
49104;BME280;34915;52.926;11.116;2023-05-01T05:58:11;101783.59;;;6.93;91.78
49104;BME280;34915;52.926;11.116;2023-05-01T06:00:38;101767.28;;;7.05;93.09
49104;BME280;34915;52.926;11.116;2023-05-01T06:03:04;101763.22;;;7.18;92.04
49104;BME280;34915;52.926;11.116;2023-05-01T06:05:29;101767.88;;;7.33;92.46
49104;BME280;34915;52.926;11.116;2023-05-01T06:07:55;101762.22;;;7.42;91.67
49104;BME280;34915;52.926;11.116;2023-05-01T06:10:21;101773.31;;;7.50;88.66
49104;BME280;34915;52.926;11.116;2023-05-01T06:12:46;101763.41;;;7.55;87.20
49104;BME280;34915;52.926;11.116;2023-05-01T06:15:12;101761.34;;;7.63;88.77
49104;BME280;34915;52.926;11.116;2023-05-01T06:17:41;101755.94;;;7.66;88.13
49104;BME280;34915;52.926;11.116;2023-05-01T06:20:08;101748.22;;;7.61;88.26
49104;BME280;34915;52.926;11.116;2023-05-01T06:22:34;101748.22;;;7.61;88.75
49104;BME280;34915;52.926;11.116;2023-05-01T06:24:59;101748.00;;;7.66;89.22
49104;BME280;34915;52.926;11.116;2023-05-01T06:27:26;101746.84;;;7.73;88.21
49104;BME280;34915;52.926;11.116;2023-05-01T06:29:51;101730.19;;;7.71;88.00
49104;BME280;34915;52.926;11.116;2023-05-01T06:32:19;101744.56;;;7.83;87.82
49104;BME280;34915;52.926;11.116;2023-05-01T06:34:45;101753.00;;;7.91;88.82
49104;BME280;34915;52.926;11.116;2023-05-01T06:37:10;101755.47;;;7.96;87.65
49104;BME280;34915;52.926;11.116;2023-05-01T06:39:36;101750.88;;;7.99;85.88
49104;BME280;34915;52.926;11.116;2023-05-01T06:42:01;101746.03;;;8.09;87.08
49104;BME280;34915;52.926;11.116;2023-05-01T06:44:27;101739.53;;;8.17;87.04
49104;BME280;34915;52.926;11.116;2023-05-01T06:46:53;101745.97;;;8.30;87.48
49104;BME280;34915;52.926;11.116;2023-05-01T06:49:19;101731.16;;;8.46;85.39
49104;BME280;34915;52.926;11.116;2023-05-01T06:51:44;101729.13;;;8.51;86.02
49104;BME280;34915;52.926;11.116;2023-05-01T06:54:10;101723.16;;;8.66;84.45
49104;BME280;34915;52.926;11.116;2023-05-01T06:56:35;101722.56;;;8.78;84.07
49104;BME280;34915;52.926;11.116;2023-05-01T06:59:01;101726.97;;;8.95;83.74
49104;BME280;34915;52.926;11.116;2023-05-01T07:01:28;101724.34;;;9.12;80.61
49104;BME280;34915;52.926;11.116;2023-05-01T07:03:53;101716.44;;;9.29;79.03
49104;BME280;34915;52.926;11.116;2023-05-01T07:06:19;101710.69;;;9.38;78.65
49104;BME280;34915;52.926;11.116;2023-05-01T07:08:44;101709.44;;;9.62;78.62
49104;BME280;34915;52.926;11.116;2023-05-01T07:11:10;101712.84;;;9.64;78.78
49104;BME280;34915;52.926;11.116;2023-05-01T07:13:35;101706.59;;;9.81;80.45
49104;BME280;34915;52.926;11.116;2023-05-01T07:16:01;101709.25;;;9.98;76.58
49104;BME280;34915;52.926;11.116;2023-05-01T07:18:27;101702.63;;;10.22;74.30
49104;BME280;34915;52.926;11.116;2023-05-01T07:20:53;101693.44;;;10.29;72.77
49104;BME280;34915;52.926;11.116;2023-05-01T07:23:19;101696.97;;;10.45;74.77
49104;BME280;34915;52.926;11.116;2023-05-01T07:25:44;101701.13;;;10.64;72.85
49104;BME280;34915;52.926;11.116;2023-05-01T07:28:10;101694.31;;;10.76;70.44
49104;BME280;34915;52.926;11.116;2023-05-01T07:30:36;101688.13;;;10.90;72.62
49104;BME280;34915;52.926;11.116;2023-05-01T07:33:02;101692.91;;;10.99;73.21
49104;BME280;34915;52.926;11.116;2023-05-01T07:35:32;101689.66;;;11.10;74.51
49104;BME280;34915;52.926;11.116;2023-05-01T07:37:58;101671.00;;;11.11;72.26
49104;BME280;34915;52.926;11.116;2023-05-01T07:40:23;101683.94;;;11.31;73.08
49104;BME280;34915;52.926;11.116;2023-05-01T07:42:49;101675.88;;;11.48;69.33
49104;BME280;34915;52.926;11.116;2023-05-01T07:45:15;101668.09;;;11.59;69.91
49104;BME280;34915;52.926;11.116;2023-05-01T07:47:41;101671.56;;;11.88;67.78
49104;BME280;34915;52.926;11.116;2023-05-01T07:50:10;101664.47;;;12.03;68.72
49104;BME280;34915;52.926;11.116;2023-05-01T07:52:36;101664.06;;;12.09;69.65
49104;BME280;34915;52.926;11.116;2023-05-01T07:55:02;101658.38;;;12.15;68.71
49104;BME280;34915;52.926;11.116;2023-05-01T07:57:28;101654.06;;;12.40;63.66
49104;BME280;34915;52.926;11.116;2023-05-01T07:59:55;101647.41;;;12.61;62.28
49104;BME280;34915;52.926;11.116;2023-05-01T08:02:21;101639.03;;;12.93;60.39
49104;BME280;34915;52.926;11.116;2023-05-01T08:04:46;101637.41;;;13.17;63.50
49104;BME280;34915;52.926;11.116;2023-05-01T08:07:13;101643.09;;;13.37;63.81
49104;BME280;34915;52.926;11.116;2023-05-01T08:09:39;101632.78;;;13.45;62.11
49104;BME280;34915;52.926;11.116;2023-05-01T08:12:04;101635.53;;;13.56;57.84
49104;BME280;34915;52.926;11.116;2023-05-01T08:14:30;101628.84;;;13.63;60.72
49104;BME280;34915;52.926;11.116;2023-05-01T08:16:56;101633.09;;;13.77;60.40
49104;BME280;34915;52.926;11.116;2023-05-01T08:19:22;101637.25;;;13.81;57.63
49104;BME280;34915;52.926;11.116;2023-05-01T08:21:48;101630.41;;;14.02;58.41
49104;BME280;34915;52.926;11.116;2023-05-01T08:24:13;101626.56;;;14.31;61.85
49104;BME280;34915;52.926;11.116;2023-05-01T08:26:39;101624.53;;;14.58;59.80
49104;BME280;34915;52.926;11.116;2023-05-01T08:29:04;101625.56;;;14.68;59.21
49104;BME280;34915;52.926;11.116;2023-05-01T08:31:30;101620.09;;;14.81;59.42
49104;BME280;34915;52.926;11.116;2023-05-01T08:33:55;101618.41;;;14.91;56.06
49104;BME280;34915;52.926;11.116;2023-05-01T08:36:21;101623.88;;;14.67;54.83
49104;BME280;34915;52.926;11.116;2023-05-01T08:38:47;101611.53;;;14.66;56.07
49104;BME280;34915;52.926;11.116;2023-05-01T08:41:20;101612.09;;;14.81;57.17
49104;BME280;34915;52.926;11.116;2023-05-01T08:43:47;101609.91;;;14.86;56.31
49104;BME280;34915;52.926;11.116;2023-05-01T08:46:20;101608.97;;;14.87;55.47
49104;BME280;34915;52.926;11.116;2023-05-01T08:48:50;101604.59;;;14.86;54.28
49104;BME280;34915;52.926;11.116;2023-05-01T08:51:17;101598.50;;;14.84;52.96
49104;BME280;34915;52.926;11.116;2023-05-01T08:53:45;101603.03;;;14.95;55.48
49104;BME280;34915;52.926;11.116;2023-05-01T08:56:15;101585.50;;;15.03;51.36
49104;BME280;34915;52.926;11.116;2023-05-01T08:58:42;101584.16;;;15.09;52.60
49104;BME280;34915;52.926;11.116;2023-05-01T09:01:13;101585.84;;;15.22;55.05
49104;BME280;34915;52.926;11.116;2023-05-01T09:03:40;101581.00;;;15.38;50.41
49104;BME280;34915;52.926;11.116;2023-05-01T09:06:10;101564.72;;;15.41;48.93
49104;BME280;34915;52.926;11.116;2023-05-01T09:08:36;101569.38;;;15.50;50.38
49104;BME280;34915;52.926;11.116;2023-05-01T09:11:02;101575.69;;;15.60;51.35
49104;BME280;34915;52.926;11.116;2023-05-01T09:13:28;101573.53;;;15.86;52.92
49104;BME280;34915;52.926;11.116;2023-05-01T09:15:54;101565.75;;;15.83;54.25
49104;BME280;34915;52.926;11.116;2023-05-01T09:18:20;101565.88;;;15.82;52.57
49104;BME280;34915;52.926;11.116;2023-05-01T09:20:46;101557.59;;;15.52;48.35
49104;BME280;34915;52.926;11.116;2023-05-01T09:23:11;101561.84;;;15.55;48.14
49104;BME280;34915;52.926;11.116;2023-05-01T09:25:37;101557.25;;;15.68;49.98
49104;BME280;34915;52.926;11.116;2023-05-01T09:28:04;101548.00;;;15.82;48.95
49104;BME280;34915;52.926;11.116;2023-05-01T09:30:35;101554.94;;;15.85;47.46
49104;BME280;34915;52.926;11.116;2023-05-01T09:33:14;101550.91;;;15.58;46.14
49104;BME280;34915;52.926;11.116;2023-05-01T09:35:56;101548.63;;;15.75;50.15
49104;BME280;34915;52.926;11.116;2023-05-01T09:38:25;101536.09;;;15.97;49.24
49104;BME280;34915;52.926;11.116;2023-05-01T09:40:52;101535.22;;;16.19;50.34
49104;BME280;34915;52.926;11.116;2023-05-01T09:43:23;101524.13;;;16.45;49.50
49104;BME280;34915;52.926;11.116;2023-05-01T09:46:07;101523.94;;;16.88;51.59
49104;BME280;34915;52.926;11.116;2023-05-01T09:48:37;101530.22;;;17.19;49.96
49104;BME280;34915;52.926;11.116;2023-05-01T09:51:26;101514.63;;;17.24;46.37
49104;BME280;34915;52.926;11.116;2023-05-01T09:54:02;101522.03;;;17.20;46.71
49104;BME280;34915;52.926;11.116;2023-05-01T09:56:30;101514.31;;;17.06;44.83
49104;BME280;34915;52.926;11.116;2023-05-01T09:58:58;101517.66;;;17.19;48.57
49104;BME280;34915;52.926;11.116;2023-05-01T10:01:44;101513.66;;;17.25;49.35
49104;BME280;34915;52.926;11.116;2023-05-01T10:04:11;101524.59;;;17.42;49.84
49104;BME280;34915;52.926;11.116;2023-05-01T10:06:38;101518.16;;;17.44;49.33
49104;BME280;34915;52.926;11.116;2023-05-01T10:09:04;101502.09;;;17.24;48.38
49104;BME280;34915;52.926;11.116;2023-05-01T10:11:53;101515.19;;;16.86;44.34
49104;BME280;34915;52.926;11.116;2023-05-01T10:14:20;101510.84;;;16.75;46.81
49104;BME280;34915;52.926;11.116;2023-05-01T10:16:48;101512.44;;;16.97;49.62
49104;BME280;34915;52.926;11.116;2023-05-01T10:19:15;101499.41;;;17.24;50.67
49104;BME280;34915;52.926;11.116;2023-05-01T10:21:41;101491.91;;;17.48;45.84
49104;BME280;34915;52.926;11.116;2023-05-01T10:24:07;101495.03;;;17.53;44.44
49104;BME280;34915;52.926;11.116;2023-05-01T10:26:35;101489.75;;;17.72;48.28
49104;BME280;34915;52.926;11.116;2023-05-01T10:29:02;101489.94;;;17.79;45.02
49104;BME280;34915;52.926;11.116;2023-05-01T10:31:28;101489.75;;;17.72;46.58
49104;BME280;34915;52.926;11.116;2023-05-01T10:33:54;101482.38;;;17.55;45.66
49104;BME280;34915;52.926;11.116;2023-05-01T10:36:25;101484.91;;;17.56;44.61
49104;BME280;34915;52.926;11.116;2023-05-01T10:38:53;101483.25;;;17.65;45.21
49104;BME280;34915;52.926;11.116;2023-05-01T10:44:23;101470.56;;;17.67;49.22
49104;BME280;34915;52.926;11.116;2023-05-01T10:46:49;101459.84;;;17.67;48.76
49104;BME280;34915;52.926;11.116;2023-05-01T10:49:14;101458.47;;;17.72;46.20
49104;BME280;34915;52.926;11.116;2023-05-01T10:57:01;101450.88;;;17.86;45.15
49104;BME280;34915;52.926;11.116;2023-05-01T11:02:25;101437.56;;;17.76;46.37
49104;BME280;34915;52.926;11.116;2023-05-01T11:04:51;101432.63;;;17.80;44.92
49104;BME280;34915;52.926;11.116;2023-05-01T11:07:20;101429.38;;;17.68;42.99
49104;BME280;34915;52.926;11.116;2023-05-01T11:09:48;101417.22;;;17.64;46.00
49104;BME280;34915;52.926;11.116;2023-05-01T11:12:47;101429.94;;;17.71;44.89
49104;BME280;34915;52.926;11.116;2023-05-01T11:15:28;101420.88;;;17.63;45.57
49104;BME280;34915;52.926;11.116;2023-05-01T11:17:55;101407.63;;;17.61;45.31
49104;BME280;34915;52.926;11.116;2023-05-01T11:22:54;101411.66;;;17.85;46.13
49104;BME280;34915;52.926;11.116;2023-05-01T11:25:22;101403.19;;;17.99;43.71
49104;BME280;34915;52.926;11.116;2023-05-01T11:27:52;101412.56;;;18.14;45.11
49104;BME280;34915;52.926;11.116;2023-05-01T11:30:19;101405.72;;;18.01;44.82
49104;BME280;34915;52.926;11.116;2023-05-01T11:32:46;101401.47;;;17.79;47.19
49104;BME280;34915;52.926;11.116;2023-05-01T11:35:24;101396.34;;;17.58;44.15
49104;BME280;34915;52.926;11.116;2023-05-01T11:37:53;101396.91;;;17.61;43.17
49104;BME280;34915;52.926;11.116;2023-05-01T11:40:23;101401.19;;;17.82;46.18
49104;BME280;34915;52.926;11.116;2023-05-01T11:42:50;101397.00;;;18.08;45.64
49104;BME280;34915;52.926;11.116;2023-05-01T11:45:18;101389.13;;;18.16;46.94
49104;BME280;34915;52.926;11.116;2023-05-01T11:47:43;101385.19;;;18.20;41.51
49104;BME280;34915;52.926;11.116;2023-05-01T11:50:09;101386.84;;;18.21;46.23
49104;BME280;34915;52.926;11.116;2023-05-01T11:52:46;101375.84;;;18.33;42.91
49104;BME280;34915;52.926;11.116;2023-05-01T11:55:18;101368.22;;;18.38;41.32
49104;BME280;34915;52.926;11.116;2023-05-01T11:57:51;101363.13;;;18.45;43.59
49104;BME280;34915;52.926;11.116;2023-05-01T12:00:40;101363.09;;;18.64;42.04
49104;BME280;34915;52.926;11.116;2023-05-01T12:03:08;101349.00;;;18.52;41.69
49104;BME280;34915;52.926;11.116;2023-05-01T12:05:36;101363.81;;;18.47;45.28
49104;BME280;34915;52.926;11.116;2023-05-01T12:10:36;101355.19;;;18.53;44.52
49104;BME280;34915;52.926;11.116;2023-05-01T12:13:03;101357.16;;;18.70;44.51
49104;BME280;34915;52.926;11.116;2023-05-01T12:15:31;101354.00;;;18.83;46.04
49104;BME280;34915;52.926;11.116;2023-05-01T12:17:58;101345.66;;;18.86;45.06
49104;BME280;34915;52.926;11.116;2023-05-01T12:20:53;101348.91;;;18.80;42.47
49104;BME280;34915;52.926;11.116;2023-05-01T12:23:29;101346.41;;;18.70;44.51
49104;BME280;34915;52.926;11.116;2023-05-01T12:25:55;101335.53;;;18.62;45.87
49104;BME280;34915;52.926;11.116;2023-05-01T12:28:21;101330.03;;;18.73;42.59
49104;BME280;34915;52.926;11.116;2023-05-01T12:30:47;101339.53;;;19.03;41.43
49104;BME280;34915;52.926;11.116;2023-05-01T12:33:19;101329.03;;;19.10;40.55
49104;BME280;34915;52.926;11.116;2023-05-01T12:35:47;101331.59;;;19.11;42.66
49104;BME280;34915;52.926;11.116;2023-05-01T12:38:15;101323.47;;;18.84;41.31
49104;BME280;34915;52.926;11.116;2023-05-01T12:40:58;101329.22;;;18.89;44.01
49104;BME280;34915;52.926;11.116;2023-05-01T12:43:34;101319.47;;;18.98;46.09
49104;BME280;34915;52.926;11.116;2023-05-01T12:46:02;101321.59;;;18.94;43.39
49104;BME280;34915;52.926;11.116;2023-05-01T12:48:29;101318.41;;;18.81;41.66
49104;BME280;34915;52.926;11.116;2023-05-01T12:50:55;101316.09;;;18.86;45.07
49104;BME280;34915;52.926;11.116;2023-05-01T12:53:22;101309.56;;;18.98;44.77
49104;BME280;34915;52.926;11.116;2023-05-01T12:55:56;101300.75;;;19.15;42.60
49104;BME280;34915;52.926;11.116;2023-05-01T12:58:22;101302.28;;;19.62;43.26
49104;BME280;34915;52.926;11.116;2023-05-01T13:00:53;101294.84;;;19.56;39.83
49104;BME280;34915;52.926;11.116;2023-05-01T13:03:27;101273.59;;;19.62;41.13
49104;BME280;34915;52.926;11.116;2023-05-01T13:05:55;101281.78;;;19.61;44.47
49104;BME280;34915;52.926;11.116;2023-05-01T13:08:38;101283.00;;;19.49;41.33
49104;BME280;34915;52.926;11.116;2023-05-01T13:11:16;101275.16;;;19.38;41.20
49104;BME280;34915;52.926;11.116;2023-05-01T13:13:43;101275.88;;;19.57;42.19